createdAt,value
2018-12-12T00:00:41.026Z,72.93
2018-12-12T00:03:09.696Z,72.53
2018-12-12T00:05:38.516Z,72.21
2018-12-12T00:08:07.583Z,72.56
2018-12-12T00:10:36.859Z,72.94
2018-12-12T00:13:05.712Z,73.12
2018-12-12T00:15:34.484Z,72.77
2018-12-12T00:18:03.704Z,72.52
2018-12-12T00:20:33.142Z,72.44
2018-12-12T00:23:01.830Z,72.96
2018-12-12T00:25:30.619Z,72.82
2018-12-12T00:27:59.405Z,72.45
2018-12-12T00:30:28.692Z,72.92
2018-12-12T00:32:57.372Z,72.85
2018-12-12T00:35:26.207Z,72.85
2018-12-12T00:37:54.870Z,73.19
2018-12-12T00:40:25.780Z,72.99
2018-12-12T00:42:54.645Z,73.04
2018-12-12T00:45:24.537Z,73.06
2018-12-12T00:47:53.418Z,73.52
2018-12-12T00:50:22.263Z,73.14
2018-12-12T00:52:52.402Z,73.13
2018-12-12T00:55:21.052Z,73.75
2018-12-12T00:57:50.219Z,73.78
2018-12-12T01:00:19.600Z,73.79
2018-12-12T01:02:48.321Z,73.74
2018-12-12T01:05:17.120Z,73.62
2018-12-12T01:07:46.308Z,73.87
2018-12-12T01:10:15.205Z,73.77
2018-12-12T01:12:44.044Z,74.10
2018-12-12T01:15:12.785Z,74.62
2018-12-12T01:17:41.652Z,74.37
2018-12-12T01:20:11.054Z,74.43
2018-12-12T01:22:40.325Z,75.29
2018-12-12T01:25:10.272Z,75.17
2018-12-12T01:27:40.226Z,75.17
2018-12-12T01:30:09.277Z,74.94
2018-12-12T01:32:37.991Z,74.68
2018-12-12T01:35:06.855Z,75.28
2018-12-12T01:37:35.503Z,75.66
2018-12-12T01:40:05.208Z,75.67
2018-12-12T01:42:34.990Z,75.60
2018-12-12T01:45:03.833Z,75.19
2018-12-12T01:47:32.464Z,75.00
2018-12-12T01:50:01.330Z,74.91
2018-12-12T01:52:29.965Z,75.02
2018-12-12T01:54:58.601Z,74.70
2018-12-12T01:57:28.518Z,74.98
2018-12-12T01:59:57.302Z,74.91
2018-12-12T02:02:26.143Z,75.15
2018-12-12T02:04:55.005Z,75.22
2018-12-12T02:07:23.741Z,74.56
2018-12-12T02:09:53.602Z,74.58
2018-12-12T02:12:22.308Z,74.62
2018-12-12T02:14:50.961Z,74.65
2018-12-12T02:17:19.605Z,74.98
2018-12-12T02:19:48.483Z,74.93
2018-12-12T02:22:18.998Z,74.71
2018-12-12T02:24:47.620Z,74.75
2018-12-12T02:27:17.289Z,75.11
2018-12-12T02:29:45.900Z,74.88
2018-12-12T02:32:14.555Z,75.23
2018-12-12T02:34:43.389Z,74.91
2018-12-12T02:37:12.008Z,75.69
2018-12-12T02:39:40.844Z,75.57
2018-12-12T02:42:09.548Z,75.24
2018-12-12T02:44:38.279Z,75.70
2018-12-12T02:47:07.196Z,75.42
2018-12-12T02:49:36.113Z,75.40
2018-12-12T02:52:05.111Z,75.61
2018-12-12T02:54:33.840Z,75.66
2018-12-12T02:57:03.024Z,75.38
2018-12-12T02:59:31.695Z,75.29
2018-12-12T03:02:00.434Z,75.08
2018-12-12T03:04:29.337Z,74.98
2018-12-12T03:06:58.078Z,74.77
2018-12-12T03:09:26.699Z,74.91
2018-12-12T03:11:55.387Z,74.87
2018-12-12T03:14:24.039Z,75.27
2018-12-12T03:16:52.694Z,74.96
2018-12-12T03:19:21.584Z,74.82
2018-12-12T03:21:50.190Z,74.69
2018-12-12T03:24:18.856Z,74.42
2018-12-12T03:26:47.586Z,74.03
2018-12-12T03:29:17.322Z,73.71
2018-12-12T03:31:45.963Z,74.15
2018-12-12T03:34:14.726Z,73.82
2018-12-12T03:36:43.392Z,73.87
2018-12-12T03:39:12.056Z,73.72
2018-12-12T03:41:40.917Z,73.45
2018-12-12T03:44:09.651Z,73.64
2018-12-12T03:46:38.445Z,73.99
2018-12-12T03:49:07.235Z,73.94
2018-12-12T03:51:35.914Z,73.65
2018-12-12T03:54:04.625Z,73.92
2018-12-12T03:56:33.469Z,73.32
2018-12-12T03:59:08.732Z,73.65
2018-12-12T04:01:37.583Z,73.45
2018-12-12T04:04:06.334Z,73.63
2018-12-12T04:06:34.968Z,73.15
2018-12-12T04:09:04.733Z,73.55
2018-12-12T04:11:33.499Z,73.16
2018-12-12T04:14:02.184Z,72.95
2018-12-12T04:16:32.376Z,73.03
2018-12-12T04:19:01.958Z,72.65
2018-12-12T04:21:31.211Z,73.32
2018-12-12T04:24:00.287Z,73.28
2018-12-12T04:26:29.079Z,73.52
2018-12-12T04:28:58.546Z,73.51
2018-12-12T04:31:27.216Z,73.55
2018-12-12T04:33:55.810Z,73.26
2018-12-12T04:36:25.253Z,73.14
2018-12-12T04:38:56.592Z,73.32
2018-12-12T04:41:25.337Z,73.01
2018-12-12T04:43:54.840Z,72.81
2018-12-12T04:46:24.551Z,73.07
2018-12-12T04:48:55.960Z,73.31
2018-12-12T04:51:26.054Z,72.86
2018-12-12T04:53:54.764Z,72.39
2018-12-12T04:56:23.422Z,72.61
2018-12-12T04:58:52.891Z,72.13
2018-12-12T05:01:21.544Z,71.66
2018-12-12T05:03:50.872Z,71.43
2018-12-12T05:06:19.979Z,71.52
2018-12-12T05:08:48.760Z,71.26
2018-12-12T05:11:19.497Z,71.17
2018-12-12T05:13:48.364Z,70.87
2018-12-12T05:16:18.814Z,71.06
2018-12-12T05:18:48.132Z,70.48
2018-12-12T05:21:17.689Z,70.76
2018-12-12T05:23:47.408Z,70.26
2018-12-12T05:26:16.107Z,70.48
2018-12-12T05:28:44.830Z,70.40
2018-12-12T05:31:13.603Z,70.74
2018-12-12T05:33:42.335Z,71.13
2018-12-12T05:36:11.243Z,71.51
2018-12-12T05:38:39.871Z,71.56
2018-12-12T05:41:08.584Z,71.41
2018-12-12T05:43:38.127Z,71.70
2018-12-12T05:46:08.648Z,71.72
2018-12-12T05:48:37.436Z,72.14
2018-12-12T05:51:06.472Z,72.07
2018-12-12T05:53:36.133Z,71.91
2018-12-12T05:56:04.989Z,72.31
2018-12-12T05:58:33.756Z,71.99
2018-12-12T06:01:02.790Z,72.00
2018-12-12T06:03:32.078Z,71.18
2018-12-12T06:06:00.897Z,71.24
2018-12-12T06:08:30.344Z,70.27
2018-12-12T06:10:58.982Z,71.23
2018-12-12T06:13:29.052Z,70.41
2018-12-12T06:15:57.722Z,70.37
2018-12-12T06:18:27.343Z,69.77
2018-12-12T06:20:56.325Z,69.23
2018-12-12T06:23:26.383Z,69.62
2018-12-12T06:25:55.072Z,69.28
2018-12-12T06:28:24.019Z,69.10
2018-12-12T06:30:52.703Z,68.47
2018-12-12T06:33:22.037Z,68.28
2018-12-12T06:35:50.832Z,68.41
2018-12-12T06:38:19.689Z,68.08
2018-12-12T06:40:48.474Z,68.44
2018-12-12T06:43:18.683Z,67.40
2018-12-12T06:45:47.812Z,68.00
2018-12-12T06:48:17.564Z,68.10
2018-12-12T06:50:46.356Z,67.97
2018-12-12T06:53:15.327Z,67.18
2018-12-12T06:55:45.135Z,67.69
2018-12-12T06:58:14.688Z,67.75
2018-12-12T07:00:44.447Z,68.15
2018-12-12T07:03:13.175Z,68.33
2018-12-12T07:05:42.566Z,68.42
2018-12-12T07:08:11.310Z,68.22
2018-12-12T07:10:42.660Z,68.58
2018-12-12T07:13:11.718Z,68.37
2018-12-12T07:15:40.458Z,68.51
2018-12-12T07:18:09.232Z,68.56
2018-12-12T07:20:38.142Z,68.38
2018-12-12T07:23:09.629Z,68.19
2018-12-12T07:25:38.786Z,68.63
2018-12-12T07:28:09.728Z,68.49
2018-12-12T07:30:39.667Z,69.15
2018-12-12T07:33:08.511Z,68.58
2018-12-12T07:35:38.291Z,68.34
2018-12-12T07:38:07.671Z,69.40
2018-12-12T07:40:36.441Z,69.02
2018-12-12T07:43:05.120Z,68.88
2018-12-12T07:45:34.609Z,68.87
2018-12-12T07:48:03.926Z,68.52
2018-12-12T07:50:33.077Z,68.91
2018-12-12T07:53:01.991Z,68.51
2018-12-12T07:55:31.771Z,68.42
2018-12-12T07:58:02.518Z,68.76
2018-12-12T08:00:32.382Z,68.55
2018-12-12T08:03:06.318Z,68.63
2018-12-12T08:05:35.332Z,68.33
2018-12-12T08:08:04.312Z,67.96
2018-12-12T08:10:33.374Z,67.71
2018-12-12T08:13:02.274Z,67.55
2018-12-12T08:15:31.537Z,67.54
2018-12-12T08:18:00.146Z,67.56
2018-12-12T08:20:28.939Z,67.52
2018-12-12T08:22:58.473Z,67.72
2018-12-12T08:25:27.846Z,67.44
2018-12-12T08:27:57.359Z,67.45
2018-12-12T08:30:27.710Z,67.48
2018-12-12T08:32:56.607Z,67.34
2018-12-12T08:35:25.386Z,67.53
2018-12-12T08:37:54.201Z,67.18
2018-12-12T08:40:22.836Z,66.88
2018-12-12T08:42:51.686Z,67.18
2018-12-12T08:45:20.411Z,67.11
2018-12-12T08:47:49.160Z,66.40
2018-12-12T08:50:17.948Z,66.68
2018-12-12T08:52:46.664Z,66.54
2018-12-12T08:55:17.789Z,66.77
2018-12-12T08:57:46.397Z,66.41
2018-12-12T09:00:15.508Z,66.78
2018-12-12T09:02:45.262Z,66.43
2018-12-12T09:05:14.777Z,66.97
2018-12-12T09:07:44.265Z,66.15
2018-12-12T09:10:13.307Z,66.19
2018-12-12T09:12:43.601Z,66.74
2018-12-12T09:15:13.503Z,66.39
2018-12-12T09:17:42.576Z,66.23
2018-12-12T09:20:13.784Z,66.46
2018-12-12T09:22:43.089Z,66.45
2018-12-12T09:25:12.640Z,67.01
2018-12-12T09:27:42.020Z,66.58
2018-12-12T09:30:11.092Z,66.88
2018-12-12T09:32:40.525Z,66.76
2018-12-12T09:35:11.058Z,66.63
2018-12-12T09:37:39.994Z,67.20
2018-12-12T09:40:10.696Z,67.33
2018-12-12T09:42:39.566Z,67.28
2018-12-12T09:45:09.258Z,67.49
2018-12-12T09:47:38.398Z,67.65
2018-12-12T09:50:07.361Z,67.59
2018-12-12T09:52:37.023Z,67.95
2018-12-12T09:55:06.120Z,68.20
2018-12-12T09:57:34.799Z,67.95
2018-12-12T10:00:05.021Z,68.62
2018-12-12T10:02:33.700Z,68.27
2018-12-12T10:05:02.401Z,68.09
2018-12-12T10:07:32.041Z,68.26
2018-12-12T10:10:00.747Z,68.59
2018-12-12T10:12:29.397Z,68.27
2018-12-12T10:14:58.959Z,68.70
2018-12-12T10:17:30.603Z,68.64
2018-12-12T10:20:00.144Z,68.71
2018-12-12T10:22:31.930Z,69.46
2018-12-12T10:25:00.644Z,69.36
2018-12-12T10:27:29.648Z,68.98
2018-12-12T10:29:58.303Z,68.80
2018-12-12T10:32:26.957Z,69.20
2018-12-12T10:34:55.807Z,69.33
2018-12-12T10:37:24.467Z,69.12
2018-12-12T10:39:53.256Z,69.17
2018-12-12T10:42:22.215Z,69.11
2018-12-12T10:44:51.909Z,69.10
2018-12-12T10:47:22.360Z,69.00
2018-12-12T10:49:51.252Z,68.98
2018-12-12T10:52:20.037Z,68.95
2018-12-12T10:54:49.847Z,69.41
2018-12-12T10:57:18.911Z,69.12
2018-12-12T10:59:48.351Z,69.04
2018-12-12T11:02:23.513Z,69.35
2018-12-12T11:04:53.432Z,69.28
2018-12-12T11:07:22.151Z,68.76
2018-12-12T11:09:50.867Z,68.74
2018-12-12T11:12:19.607Z,69.12
2018-12-12T11:14:49.311Z,68.85
2018-12-12T11:17:19.681Z,68.83
2018-12-12T11:19:48.456Z,69.15
2018-12-12T11:22:18.298Z,69.44
2018-12-12T11:24:49.004Z,69.42
2018-12-12T11:27:18.970Z,69.24
2018-12-12T11:29:48.346Z,69.42
2018-12-12T11:32:18.312Z,69.62
2018-12-12T11:34:47.999Z,68.98
2018-12-12T11:37:16.788Z,68.99
2018-12-12T11:39:46.528Z,69.30
2018-12-12T11:42:16.486Z,69.15
2018-12-12T11:44:45.436Z,69.37
2018-12-12T11:47:14.811Z,69.63
2018-12-12T11:49:43.663Z,69.27
2018-12-12T11:52:12.519Z,69.39
2018-12-12T11:54:41.528Z,69.31
2018-12-12T11:57:10.640Z,69.55
2018-12-12T11:59:39.386Z,69.09
2018-12-12T12:02:08.188Z,69.24
2018-12-12T12:04:39.785Z,68.85
2018-12-12T12:07:09.249Z,68.72
2018-12-12T12:09:38.681Z,68.97
2018-12-12T12:12:08.801Z,69.11
2018-12-12T12:14:37.626Z,69.34
2018-12-12T12:17:07.090Z,69.32
2018-12-12T12:19:36.058Z,69.35
2018-12-12T12:22:04.984Z,69.67
2018-12-12T12:24:33.716Z,69.68
2018-12-12T12:27:03.669Z,69.68
2018-12-12T12:29:33.952Z,69.70
2018-12-12T12:32:03.835Z,69.92
2018-12-12T12:34:32.507Z,69.83
2018-12-12T12:37:02.055Z,70.57
2018-12-12T12:39:30.819Z,70.31
2018-12-12T12:41:59.571Z,70.26
2018-12-12T12:44:28.397Z,70.48
2018-12-12T12:46:57.310Z,70.09
2018-12-12T12:49:26.963Z,70.77
2018-12-12T12:51:55.744Z,70.91
2018-12-12T12:54:24.471Z,71.15
2018-12-12T12:56:53.160Z,71.16
2018-12-12T12:59:23.003Z,71.01
2018-12-12T13:01:52.267Z,70.89
2018-12-12T13:04:22.960Z,71.56
2018-12-12T13:06:52.350Z,70.82
2018-12-12T13:09:21.240Z,70.05
2018-12-12T13:11:50.199Z,69.49
2018-12-12T13:14:19.118Z,70.44
2018-12-12T13:16:49.038Z,70.37
2018-12-12T13:19:18.417Z,69.64
2018-12-12T13:21:47.658Z,69.61
2018-12-12T13:24:16.667Z,69.28
2018-12-12T13:26:53.201Z,69.11
2018-12-12T13:29:18.744Z,69.46
2018-12-12T13:31:49.633Z,69.02
2018-12-12T13:34:18.404Z,69.36
2018-12-12T13:36:47.825Z,69.11
2018-12-12T13:39:17.501Z,69.04
2018-12-12T13:41:46.203Z,69.28
2018-12-12T13:44:15.218Z,68.89
2018-12-12T13:46:43.943Z,69.33
2018-12-12T13:49:13.161Z,69.77
2018-12-12T13:51:43.043Z,69.82
2018-12-12T13:54:12.009Z,69.96
2018-12-12T13:56:40.926Z,69.77
2018-12-12T13:59:10.968Z,69.99
2018-12-12T14:01:40.318Z,70.11
2018-12-12T14:04:09.089Z,70.59
2018-12-12T14:06:37.994Z,70.64
2018-12-12T14:09:07.577Z,70.44
2018-12-12T14:11:36.255Z,70.45
2018-12-12T14:14:05.019Z,70.70
2018-12-12T14:16:33.807Z,71.00
2018-12-12T14:19:02.550Z,71.20
2018-12-12T14:21:31.328Z,71.01
2018-12-12T14:24:00.734Z,70.89
2018-12-12T14:26:29.396Z,70.90
2018-12-12T14:28:59.482Z,71.47
2018-12-12T14:31:29.125Z,71.30
2018-12-12T14:33:57.851Z,71.10
2018-12-12T14:36:26.783Z,70.87
2018-12-12T14:38:55.570Z,71.38
2018-12-12T14:41:24.311Z,71.02
2018-12-12T14:43:53.307Z,71.23
2018-12-12T14:46:21.974Z,71.43
2018-12-12T14:48:50.713Z,70.82
2018-12-12T14:51:19.572Z,71.13
2018-12-12T14:53:48.420Z,71.09
2018-12-12T14:56:18.613Z,70.93
2018-12-12T14:58:48.738Z,71.19
2018-12-12T15:01:20.830Z,70.89
2018-12-12T15:03:50.173Z,71.02
2018-12-12T15:06:19.804Z,70.57
2018-12-12T15:08:48.545Z,70.81
2018-12-12T15:11:18.595Z,70.69
2018-12-12T15:13:47.575Z,70.55
2018-12-12T15:16:17.192Z,70.67
2018-12-12T15:18:46.001Z,71.09
2018-12-12T15:21:15.598Z,70.54
2018-12-12T15:23:44.910Z,71.17
2018-12-12T15:26:13.824Z,70.99
2018-12-12T15:28:42.742Z,71.06
2018-12-12T15:31:12.891Z,71.33
2018-12-12T15:33:41.727Z,71.15
2018-12-12T15:36:11.445Z,71.58
2018-12-12T15:38:41.436Z,71.68
2018-12-12T15:41:12.150Z,72.10
2018-12-12T15:43:41.144Z,72.00
2018-12-12T15:46:09.863Z,71.82
2018-12-12T15:48:38.855Z,71.68
2018-12-12T15:51:07.505Z,71.84
2018-12-12T15:53:36.228Z,72.06
2018-12-12T15:56:05.579Z,72.05
2018-12-12T15:58:35.936Z,71.79
2018-12-12T16:01:04.765Z,71.48
2018-12-12T16:03:33.744Z,71.45
2018-12-12T16:06:02.405Z,71.08
2018-12-12T16:08:31.068Z,71.37
2018-12-12T16:10:59.880Z,71.08
2018-12-12T16:13:29.442Z,71.60
2018-12-12T16:15:58.119Z,71.43
2018-12-12T16:18:26.951Z,71.41
2018-12-12T16:20:55.599Z,71.88
2018-12-12T16:23:25.308Z,71.81
2018-12-12T16:25:54.076Z,71.81
2018-12-12T16:28:23.480Z,71.64
2018-12-12T16:30:53.722Z,71.67
2018-12-12T16:33:23.108Z,71.99
2018-12-12T16:35:52.593Z,72.06
2018-12-12T16:38:22.195Z,72.11
2018-12-12T16:40:51.560Z,72.07
2018-12-12T16:43:20.328Z,72.32
2018-12-12T16:45:49.170Z,72.25
2018-12-12T16:48:18.912Z,72.79
2018-12-12T16:50:48.739Z,72.72
2018-12-12T16:53:17.469Z,72.49
2018-12-12T16:55:47.143Z,72.73
2018-12-12T16:58:16.465Z,72.24
2018-12-12T17:00:45.763Z,72.55
2018-12-12T17:03:14.711Z,72.18
2018-12-12T17:05:43.502Z,72.74
2018-12-12T17:08:12.157Z,72.59
2018-12-12T17:10:43.636Z,72.34
2018-12-12T17:13:14.528Z,72.27
2018-12-12T17:15:45.513Z,72.12
2018-12-12T17:18:14.914Z,72.10
2018-12-12T17:20:43.641Z,72.33
2018-12-12T17:23:13.858Z,72.61
2018-12-12T17:25:42.565Z,72.17
2018-12-12T17:28:13.407Z,72.47
2018-12-12T17:30:42.422Z,72.27
2018-12-12T17:33:11.255Z,72.39
2018-12-12T17:35:40.999Z,71.56
2018-12-12T17:38:11.355Z,71.73
2018-12-12T17:40:40.281Z,71.98
2018-12-12T17:43:10.233Z,72.04
2018-12-12T17:45:39.221Z,71.80
2018-12-12T17:48:07.948Z,72.21
2018-12-12T17:50:38.043Z,72.26
2018-12-12T17:53:07.565Z,71.96
2018-12-12T17:55:38.239Z,72.04
2018-12-12T17:58:08.232Z,72.35
2018-12-12T18:00:38.503Z,71.94
2018-12-12T18:03:07.135Z,71.46
2018-12-12T18:05:37.219Z,71.99
2018-12-12T18:08:06.140Z,72.04
2018-12-12T18:10:35.746Z,71.48
2018-12-12T18:13:05.522Z,71.57
2018-12-12T18:15:35.111Z,71.65
2018-12-12T18:18:04.985Z,71.74
2018-12-12T18:20:34.371Z,71.76
2018-12-12T18:23:03.970Z,71.59
2018-12-12T18:25:33.301Z,71.80
2018-12-12T18:28:02.546Z,71.90
2018-12-12T18:30:32.174Z,72.02
2018-12-12T18:33:00.888Z,72.37
2018-12-12T18:35:31.136Z,72.17
2018-12-12T18:38:01.982Z,72.39
2018-12-12T18:40:30.799Z,72.37
2018-12-12T18:43:00.348Z,72.67
2018-12-12T18:45:29.245Z,72.35
2018-12-12T18:47:58.680Z,72.49
2018-12-12T18:50:28.228Z,72.38
2018-12-12T18:52:57.057Z,71.97
2018-12-12T18:55:26.703Z,71.80
2018-12-12T18:57:56.540Z,71.85
2018-12-12T19:00:26.757Z,72.38
2018-12-12T19:02:57.555Z,72.17
2018-12-12T19:05:28.433Z,72.57
2018-12-12T19:07:57.359Z,71.89
2018-12-12T19:10:27.536Z,72.31
2018-12-12T19:12:56.618Z,72.50
2018-12-12T19:15:26.790Z,72.43
2018-12-12T19:17:55.730Z,73.00
2018-12-12T19:20:25.699Z,72.65
2018-12-12T19:22:54.363Z,73.40
2018-12-12T19:25:23.603Z,73.25
2018-12-12T19:27:53.927Z,73.64
2018-12-12T19:30:22.717Z,73.57
2018-12-12T19:32:51.535Z,74.05
2018-12-12T19:35:21.726Z,74.21
2018-12-12T19:37:51.349Z,73.64
2018-12-12T19:40:20.106Z,74.16
2018-12-12T19:42:50.862Z,73.72
2018-12-12T19:45:19.593Z,73.31
2018-12-12T19:47:48.951Z,73.56
2018-12-12T19:50:17.937Z,74.04
2018-12-12T19:52:48.512Z,74.33
2018-12-12T19:55:17.325Z,74.49
2018-12-12T19:57:46.189Z,74.95
2018-12-12T20:00:14.885Z,75.22
2018-12-12T20:02:43.767Z,75.37
2018-12-12T20:05:12.785Z,75.59
2018-12-12T20:07:42.362Z,75.38
2018-12-12T20:10:11.904Z,75.17
2018-12-12T20:12:41.373Z,75.45
2018-12-12T20:15:14.921Z,75.48
2018-12-12T20:17:45.096Z,75.45
2018-12-12T20:20:14.577Z,75.52
2018-12-12T20:22:43.799Z,75.47
2018-12-12T20:25:13.152Z,75.29
2018-12-12T20:27:42.483Z,75.29
2018-12-12T20:30:12.004Z,75.58
2018-12-12T20:32:41.351Z,75.87
2018-12-12T20:35:11.269Z,76.09
2018-12-12T20:37:40.947Z,76.09
2018-12-12T20:40:11.033Z,76.48
2018-12-12T20:42:41.134Z,76.93
2018-12-12T20:45:10.689Z,77.09
2018-12-12T20:47:40.284Z,76.96
2018-12-12T20:50:09.428Z,77.25
2018-12-12T20:52:38.782Z,77.80
2018-12-12T20:55:09.008Z,77.76
2018-12-12T20:57:39.718Z,78.03
2018-12-12T21:00:09.761Z,78.16
2018-12-12T21:02:39.363Z,78.41
2018-12-12T21:05:08.612Z,78.15
2018-12-12T21:07:37.653Z,78.50
2018-12-12T21:10:07.113Z,78.77
2018-12-12T21:12:36.692Z,78.50
2018-12-12T21:15:08.330Z,78.60
2018-12-12T21:17:38.144Z,78.61
2018-12-12T21:20:08.930Z,78.28
2018-12-12T21:22:37.995Z,77.65
2018-12-12T21:25:08.181Z,77.39
2018-12-12T21:27:37.670Z,77.10
2018-12-12T21:30:07.990Z,76.54
2018-12-12T21:32:37.311Z,76.45
2018-12-12T21:35:07.584Z,75.96
2018-12-12T21:37:36.528Z,75.58
2018-12-12T21:40:06.650Z,75.89
2018-12-12T21:42:35.530Z,74.99
2018-12-12T21:45:05.242Z,75.61
2018-12-12T21:47:34.868Z,75.27
2018-12-12T21:50:05.824Z,75.17
2018-12-12T21:52:34.765Z,75.38
2018-12-12T21:55:03.670Z,75.72
2018-12-12T21:57:32.989Z,75.39
2018-12-12T22:00:04.459Z,75.36
2018-12-12T22:02:34.147Z,75.08
2018-12-12T22:05:04.788Z,74.73
2018-12-12T22:07:36.330Z,74.99
2018-12-12T22:10:07.674Z,74.13
2018-12-12T22:12:38.213Z,74.41
2018-12-12T22:15:08.841Z,74.23
2018-12-12T22:17:41.785Z,73.83
2018-12-12T22:20:10.715Z,73.77
2018-12-12T22:22:40.764Z,73.84
2018-12-12T22:25:11.252Z,74.26
2018-12-12T22:27:41.248Z,74.36
2018-12-12T22:30:13.144Z,74.90
2018-12-12T22:32:43.387Z,74.87
2018-12-12T22:35:14.633Z,74.42
2018-12-12T22:37:44.101Z,74.71
2018-12-12T22:40:12.804Z,74.62
2018-12-12T22:42:41.882Z,74.86
2018-12-12T22:45:11.789Z,75.57
2018-12-12T22:47:40.682Z,75.47
2018-12-12T22:50:10.489Z,75.19
2018-12-12T22:52:40.538Z,75.12
2018-12-12T22:55:10.110Z,75.41
2018-12-12T22:57:40.017Z,75.49
2018-12-12T23:00:10.563Z,75.23
2018-12-12T23:02:41.453Z,75.08
2018-12-12T23:05:10.537Z,75.29
2018-12-12T23:07:49.183Z,74.69
2018-12-12T23:10:18.610Z,75.46
2018-12-12T23:12:48.092Z,75.36
2018-12-12T23:15:17.705Z,74.83
2018-12-12T23:17:47.597Z,74.33
2018-12-12T23:20:17.103Z,74.73
2018-12-12T23:22:47.819Z,74.76
2018-12-12T23:25:17.671Z,74.86
2018-12-12T23:27:48.000Z,74.58
2018-12-12T23:30:17.865Z,74.91
2018-12-12T23:32:48.149Z,74.36
2018-12-12T23:35:17.977Z,74.42
2018-12-12T23:37:47.791Z,74.39
2018-12-12T23:40:17.052Z,74.68
2018-12-12T23:42:46.067Z,74.65
2018-12-12T23:45:15.423Z,74.39
2018-12-12T23:47:44.665Z,74.53
2018-12-12T23:50:14.478Z,74.37
2018-12-12T23:52:43.673Z,73.81
2018-12-12T23:55:12.711Z,73.24
2018-12-12T23:57:42.772Z,73.76
